Terminal Aerodrome Forecast
Issued by NWS Portland, OR

Home | Current Version | Previous Version | Text Only | Print | Product List | Glossary On
Versions: 1 2 3 4 5 6 7 8 9 10 11 12 13 14 15 16 17 18 19 20 21 22 23 24 25 26 27 28
000
FTUS46 KPQR 302144 AAB
TAFAST
TAF AMD
KAST 302144Z 3022/0118 21012G18KT P6SM SCT012 BKN030
      TEMPO 3022/3024 BKN012
     FM010000 20010G15KT P6SM VCSH BKN015 OVC035
     FM010400 16004KT P6SM -SHRA BKN025 OVC030
     FM011200 20011KT P6SM -RA OVC015=

USA.gov is the U.S. government's official web portal to all federal, state and local government web resources and services.